sensor_id;sensor_type;location;lat;lon;timestamp;pressure;altitude;pressure_sealevel;temperature;humidity
50710;BME280;37033;49.994;21.992;2023-06-24T00:01:40;99231.94;;;19.08;92.74
50710;BME280;37033;49.994;21.992;2023-06-24T00:04:10;99227.07;;;19.07;92.64
50710;BME280;37033;49.994;21.992;2023-06-24T00:06:44;99233.30;;;19.07;92.88
50710;BME280;37033;49.994;21.992;2023-06-24T00:09:14;99225.55;;;19.05;92.80
50710;BME280;37033;49.994;21.992;2023-06-24T00:11:45;99230.96;;;19.05;93.01
50710;BME280;37033;49.994;21.992;2023-06-24T00:14:16;99235.90;;;19.06;93.21
50710;BME280;37033;49.994;21.992;2023-06-24T00:16:47;99245.72;;;19.05;93.10
50710;BME280;37033;49.994;21.992;2023-06-24T00:19:22;99248.63;;;19.06;93.32
50710;BME280;37033;49.994;21.992;2023-06-24T00:21:53;99254.74;;;19.06;93.13
50710;BME280;37033;49.994;21.992;2023-06-24T00:24:24;99256.84;;;19.06;93.25
50710;BME280;37033;49.994;21.992;2023-06-24T00:26:55;99260.74;;;19.06;93.19
50710;BME280;37033;49.994;21.992;2023-06-24T00:29:25;99257.25;;;19.07;93.27
50710;BME280;37033;49.994;21.992;2023-06-24T00:31:56;99254.34;;;19.07;93.11
50710;BME280;37033;49.994;21.992;2023-06-24T00:34:26;99243.38;;;19.07;93.47
50710;BME280;37033;49.994;21.992;2023-06-24T00:36:57;99249.05;;;19.07;93.39
50710;BME280;37033;49.994;21.992;2023-06-24T00:39:28;99249.02;;;19.06;93.30
50710;BME280;37033;49.994;21.992;2023-06-24T00:41:58;99251.10;;;19.06;93.41
50710;BME280;37033;49.994;21.992;2023-06-24T00:44:29;99248.60;;;19.05;93.35
50710;BME280;37033;49.994;21.992;2023-06-24T00:47:00;99244.49;;;19.03;93.35
50710;BME280;37033;49.994;21.992;2023-06-24T00:49:31;99244.20;;;19.04;93.28
50710;BME280;37033;49.994;21.992;2023-06-24T00:52:02;99247.55;;;19.05;93.27
50710;BME280;37033;49.994;21.992;2023-06-24T00:54:32;99249.86;;;19.05;93.20
50710;BME280;37033;49.994;21.992;2023-06-24T00:57:04;99245.77;;;19.05;93.19
50710;BME280;37033;49.994;21.992;2023-06-24T00:59:35;99243.92;;;19.04;93.27
50710;BME280;37033;49.994;21.992;2023-06-24T01:02:07;99244.27;;;19.03;93.20
50710;BME280;37033;49.994;21.992;2023-06-24T01:04:38;99244.45;;;19.03;93.19
50710;BME280;37033;49.994;21.992;2023-06-24T01:07:08;99250.85;;;19.02;93.21
50710;BME280;37033;49.994;21.992;2023-06-24T01:09:39;99250.18;;;19.02;93.37
50710;BME280;37033;49.994;21.992;2023-06-24T01:12:10;99256.52;;;19.02;93.51
50710;BME280;37033;49.994;21.992;2023-06-24T01:14:41;99251.64;;;19.03;93.57
50710;BME280;37033;49.994;21.992;2023-06-24T01:17:14;99247.52;;;19.04;93.55
50710;BME280;37033;49.994;21.992;2023-06-24T01:19:59;99248.20;;;19.05;93.66
50710;BME280;37033;49.994;21.992;2023-06-24T01:22:48;99253.27;;;19.05;93.62
50710;BME280;37033;49.994;21.992;2023-06-24T01:25:38;99252.69;;;19.07;93.62
50710;BME280;37033;49.994;21.992;2023-06-24T01:28:28;99250.88;;;19.10;93.60
50710;BME280;37033;49.994;21.992;2023-06-24T01:34:01;99255.12;;;19.14;93.67
50710;BME280;37033;49.994;21.992;2023-06-24T01:36:34;99251.77;;;19.16;93.54
50710;BME280;37033;49.994;21.992;2023-06-24T01:39:09;99248.77;;;19.17;93.53
50710;BME280;37033;49.994;21.992;2023-06-24T01:41:46;99248.10;;;19.18;93.52
50710;BME280;37033;49.994;21.992;2023-06-24T01:44:18;99249.08;;;19.18;93.53
50710;BME280;37033;49.994;21.992;2023-06-24T01:46:51;99242.35;;;19.19;93.57
50710;BME280;37033;49.994;21.992;2023-06-24T01:49:29;99247.13;;;19.20;93.60
50710;BME280;37033;49.994;21.992;2023-06-24T01:52:05;99249.90;;;19.19;93.61
50710;BME280;37033;49.994;21.992;2023-06-24T01:54:38;99252.88;;;19.20;93.69
50710;BME280;37033;49.994;21.992;2023-06-24T01:57:11;99253.57;;;19.21;93.76
50710;BME280;37033;49.994;21.992;2023-06-24T01:59:43;99254.30;;;19.23;93.69
50710;BME280;37033;49.994;21.992;2023-06-24T02:02:15;99252.90;;;19.24;93.76
50710;BME280;37033;49.994;21.992;2023-06-24T02:04:49;99247.20;;;19.25;93.74
50710;BME280;37033;49.994;21.992;2023-06-24T02:07:23;99253.20;;;19.25;93.65
50710;BME280;37033;49.994;21.992;2023-06-24T02:09:54;99260.88;;;19.28;93.72
50710;BME280;37033;49.994;21.992;2023-06-24T02:12:25;99256.98;;;19.29;93.88
50710;BME280;37033;49.994;21.992;2023-06-24T02:14:58;99253.55;;;19.31;93.92
50710;BME280;37033;49.994;21.992;2023-06-24T02:17:29;99255.28;;;19.32;93.97
50710;BME280;37033;49.994;21.992;2023-06-24T02:20:00;99254.36;;;19.34;94.01
50710;BME280;37033;49.994;21.992;2023-06-24T02:22:33;99255.89;;;19.36;94.03
50710;BME280;37033;49.994;21.992;2023-06-24T02:25:07;99257.02;;;19.37;94.11
50710;BME280;37033;49.994;21.992;2023-06-24T02:27:38;99259.96;;;19.36;94.11
50710;BME280;37033;49.994;21.992;2023-06-24T02:30:12;99257.50;;;19.35;94.28
50710;BME280;37033;49.994;21.992;2023-06-24T02:32:44;99254.29;;;19.36;94.31
50710;BME280;37033;49.994;21.992;2023-06-24T02:35:15;99257.80;;;19.37;94.41
50710;BME280;37033;49.994;21.992;2023-06-24T02:37:45;99259.38;;;19.38;94.61
50710;BME280;37033;49.994;21.992;2023-06-24T02:40:16;99256.66;;;19.39;94.87
50710;BME280;37033;49.994;21.992;2023-06-24T02:42:47;99264.12;;;19.38;95.13
50710;BME280;37033;49.994;21.992;2023-06-24T02:45:17;99264.27;;;19.38;95.24
50710;BME280;37033;49.994;21.992;2023-06-24T02:47:49;99272.73;;;19.39;95.30
50710;BME280;37033;49.994;21.992;2023-06-24T02:50:20;99277.92;;;19.40;95.32
50710;BME280;37033;49.994;21.992;2023-06-24T02:52:52;99280.40;;;19.40;95.57
50710;BME280;37033;49.994;21.992;2023-06-24T02:55:24;99282.21;;;19.41;95.73
50710;BME280;37033;49.994;21.992;2023-06-24T02:57:56;99289.20;;;19.41;95.65
50710;BME280;37033;49.994;21.992;2023-06-24T03:00:28;99293.04;;;19.42;95.98
50710;BME280;37033;49.994;21.992;2023-06-24T03:03:03;99292.74;;;19.44;96.49
50710;BME280;37033;49.994;21.992;2023-06-24T03:05:34;99298.48;;;19.46;96.87
50710;BME280;37033;49.994;21.992;2023-06-24T03:08:05;99296.27;;;19.47;96.79
50710;BME280;37033;49.994;21.992;2023-06-24T03:10:38;99298.05;;;19.48;96.45
50710;BME280;37033;49.994;21.992;2023-06-24T03:13:09;99295.77;;;19.51;96.50
50710;BME280;37033;49.994;21.992;2023-06-24T03:15:39;99296.05;;;19.53;96.48
50710;BME280;37033;49.994;21.992;2023-06-24T03:18:10;99302.40;;;19.56;96.38
50710;BME280;37033;49.994;21.992;2023-06-24T03:20:41;99310.20;;;19.57;96.61
50710;BME280;37033;49.994;21.992;2023-06-24T03:23:12;99307.73;;;19.58;96.51
50710;BME280;37033;49.994;21.992;2023-06-24T03:25:42;99314.75;;;19.59;96.89
50710;BME280;37033;49.994;21.992;2023-06-24T03:28:13;99320.04;;;19.60;96.82
50710;BME280;37033;49.994;21.992;2023-06-24T03:30:43;99319.92;;;19.59;96.95
50710;BME280;37033;49.994;21.992;2023-06-24T03:33:14;99325.72;;;19.60;97.87
50710;BME280;37033;49.994;21.992;2023-06-24T03:35:46;99324.31;;;19.58;97.83
50710;BME280;37033;49.994;21.992;2023-06-24T03:38:17;99327.81;;;19.57;97.98
50710;BME280;37033;49.994;21.992;2023-06-24T03:40:47;99334.34;;;19.55;98.11
50710;BME280;37033;49.994;21.992;2023-06-24T03:43:18;99332.45;;;19.53;98.38
50710;BME280;37033;49.994;21.992;2023-06-24T03:45:49;99334.41;;;19.50;98.22
50710;BME280;37033;49.994;21.992;2023-06-24T03:48:19;99337.49;;;19.51;98.25
50710;BME280;37033;49.994;21.992;2023-06-24T03:50:50;99334.92;;;19.50;98.18
50710;BME280;37033;49.994;21.992;2023-06-24T03:53:21;99337.64;;;19.49;98.08
50710;BME280;37033;49.994;21.992;2023-06-24T03:55:51;99335.59;;;19.49;98.05
50710;BME280;37033;49.994;21.992;2023-06-24T03:58:22;99339.55;;;19.50;97.98
50710;BME280;37033;49.994;21.992;2023-06-24T04:00:53;99344.62;;;19.50;97.81
50710;BME280;37033;49.994;21.992;2023-06-24T04:03:26;99345.61;;;19.51;97.63
50710;BME280;37033;49.994;21.992;2023-06-24T04:05:57;99349.83;;;19.51;97.79
50710;BME280;37033;49.994;21.992;2023-06-24T04:08:27;99345.47;;;19.49;97.72
50710;BME280;37033;49.994;21.992;2023-06-24T04:10:59;99341.91;;;19.44;97.51
50710;BME280;37033;49.994;21.992;2023-06-24T04:13:31;99337.92;;;19.42;97.39
50710;BME280;37033;49.994;21.992;2023-06-24T04:16:02;99343.30;;;19.41;97.20
50710;BME280;37033;49.994;21.992;2023-06-24T04:18:33;99336.68;;;19.41;97.29
50710;BME280;37033;49.994;21.992;2023-06-24T04:21:06;99338.45;;;19.40;97.09
50710;BME280;37033;49.994;21.992;2023-06-24T04:23:37;99336.83;;;19.38;96.71
50710;BME280;37033;49.994;21.992;2023-06-24T04:26:07;99330.67;;;19.37;96.58
50710;BME280;37033;49.994;21.992;2023-06-24T04:28:38;99327.35;;;19.31;96.49
50710;BME280;37033;49.994;21.992;2023-06-24T04:31:09;99327.14;;;19.24;97.10
50710;BME280;37033;49.994;21.992;2023-06-24T04:33:40;99319.06;;;19.20;97.69
50710;BME280;37033;49.994;21.992;2023-06-24T04:36:10;99315.40;;;19.17;97.93
50710;BME280;37033;49.994;21.992;2023-06-24T04:38:41;99313.74;;;19.18;98.41
50710;BME280;37033;49.994;21.992;2023-06-24T04:41:12;99313.39;;;19.19;98.61
50710;BME280;37033;49.994;21.992;2023-06-24T04:43:42;99312.88;;;19.20;98.77
50710;BME280;37033;49.994;21.992;2023-06-24T04:46:13;99312.07;;;19.22;99.03
50710;BME280;37033;49.994;21.992;2023-06-24T04:48:43;99311.84;;;19.24;99.10
50710;BME280;37033;49.994;21.992;2023-06-24T04:51:14;99311.92;;;19.25;99.04
50710;BME280;37033;49.994;21.992;2023-06-24T04:53:45;99310.61;;;19.28;99.40
50710;BME280;37033;49.994;21.992;2023-06-24T04:56:15;99305.86;;;19.30;99.83
50710;BME280;37033;49.994;21.992;2023-06-24T04:58:46;99298.02;;;19.32;99.90
50710;BME280;37033;49.994;21.992;2023-06-24T05:01:16;99296.13;;;19.33;100.00
50710;BME280;37033;49.994;21.992;2023-06-24T05:03:48;99295.98;;;19.35;100.00
50710;BME280;37033;49.994;21.992;2023-06-24T05:06:18;99296.92;;;19.35;100.00
50710;BME280;37033;49.994;21.992;2023-06-24T05:08:49;99299.73;;;19.34;100.00
50710;BME280;37033;49.994;21.992;2023-06-24T05:11:20;99298.47;;;19.34;100.00
50710;BME280;37033;49.994;21.992;2023-06-24T05:13:50;99294.41;;;19.34;100.00
50710;BME280;37033;49.994;21.992;2023-06-24T05:16:21;99291.16;;;19.33;100.00
50710;BME280;37033;49.994;21.992;2023-06-24T05:18:53;99290.48;;;19.34;100.00
50710;BME280;37033;49.994;21.992;2023-06-24T05:21:23;99286.67;;;19.35;100.00
50710;BME280;37033;49.994;21.992;2023-06-24T05:23:54;99283.66;;;19.33;100.00
50710;BME280;37033;49.994;21.992;2023-06-24T05:26:25;99278.77;;;19.32;100.00
50710;BME280;37033;49.994;21.992;2023-06-24T05:28:58;99270.72;;;19.32;100.00
50710;BME280;37033;49.994;21.992;2023-06-24T05:31:29;99264.50;;;19.32;100.00
50710;BME280;37033;49.994;21.992;2023-06-24T05:33:59;99258.98;;;19.32;100.00
50710;BME280;37033;49.994;21.992;2023-06-24T05:36:30;99263.58;;;19.31;100.00
50710;BME280;37033;49.994;21.992;2023-06-24T05:39:01;99262.80;;;19.32;100.00
50710;BME280;37033;49.994;21.992;2023-06-24T05:41:32;99259.38;;;19.31;100.00
50710;BME280;37033;49.994;21.992;2023-06-24T05:44:07;99256.17;;;19.32;100.00
50710;BME280;37033;49.994;21.992;2023-06-24T05:46:39;99255.99;;;19.33;100.00
50710;BME280;37033;49.994;21.992;2023-06-24T05:49:09;99253.45;;;19.33;100.00
50710;BME280;37033;49.994;21.992;2023-06-24T05:51:40;99253.82;;;19.34;100.00
50710;BME280;37033;49.994;21.992;2023-06-24T05:54:11;99251.39;;;19.34;100.00
50710;BME280;37033;49.994;21.992;2023-06-24T05:56:41;99253.95;;;19.35;100.00
50710;BME280;37033;49.994;21.992;2023-06-24T05:59:12;99254.55;;;19.36;100.00
50710;BME280;37033;49.994;21.992;2023-06-24T06:01:42;99259.62;;;19.40;100.00
50710;BME280;37033;49.994;21.992;2023-06-24T06:04:13;99258.60;;;19.42;100.00
50710;BME280;37033;49.994;21.992;2023-06-24T06:06:44;99263.06;;;19.44;100.00
50710;BME280;37033;49.994;21.992;2023-06-24T06:09:14;99265.42;;;19.44;100.00
50710;BME280;37033;49.994;21.992;2023-06-24T06:11:45;99273.97;;;19.45;100.00
50710;BME280;37033;49.994;21.992;2023-06-24T06:14:15;99273.27;;;19.46;100.00
50710;BME280;37033;49.994;21.992;2023-06-24T06:16:46;99275.48;;;19.45;100.00
50710;BME280;37033;49.994;21.992;2023-06-24T06:19:17;99281.30;;;19.45;100.00
50710;BME280;37033;49.994;21.992;2023-06-24T06:21:47;99286.20;;;19.42;99.98
50710;BME280;37033;49.994;21.992;2023-06-24T06:24:19;99292.57;;;19.41;100.00
50710;BME280;37033;49.994;21.992;2023-06-24T06:26:50;99304.73;;;19.39;99.95
50710;BME280;37033;49.994;21.992;2023-06-24T06:29:20;99310.77;;;19.37;99.82
50710;BME280;37033;49.994;21.992;2023-06-24T06:31:51;99318.60;;;19.34;99.70
50710;BME280;37033;49.994;21.992;2023-06-24T06:34:22;99328.33;;;19.29;99.34
50710;BME280;37033;49.994;21.992;2023-06-24T06:36:52;99335.87;;;19.29;99.42
50710;BME280;37033;49.994;21.992;2023-06-24T06:39:23;99346.77;;;19.27;99.38
50710;BME280;37033;49.994;21.992;2023-06-24T06:41:53;99348.70;;;19.24;99.15
50710;BME280;37033;49.994;21.992;2023-06-24T06:44:24;99353.81;;;19.21;98.98
50710;BME280;37033;49.994;21.992;2023-06-24T06:46:55;99359.23;;;19.21;98.93
50710;BME280;37033;49.994;21.992;2023-06-24T06:49:25;99359.09;;;19.22;98.84
50710;BME280;37033;49.994;21.992;2023-06-24T06:51:56;99360.38;;;19.27;98.83
50710;BME280;37033;49.994;21.992;2023-06-24T06:54:27;99365.13;;;19.30;98.59
50710;BME280;37033;49.994;21.992;2023-06-24T06:57:01;99368.02;;;19.32;98.54
50710;BME280;37033;49.994;21.992;2023-06-24T06:59:33;99376.77;;;19.36;98.32
50710;BME280;37033;49.994;21.992;2023-06-24T07:02:04;99381.29;;;19.40;98.21
50710;BME280;37033;49.994;21.992;2023-06-24T07:04:34;99386.13;;;19.45;98.11
50710;BME280;37033;49.994;21.992;2023-06-24T07:07:06;99391.56;;;19.49;98.01
50710;BME280;37033;49.994;21.992;2023-06-24T07:09:36;99393.16;;;19.52;97.73
50710;BME280;37033;49.994;21.992;2023-06-24T07:12:08;99392.66;;;19.53;97.47
50710;BME280;37033;49.994;21.992;2023-06-24T07:14:39;99398.12;;;19.57;97.27
50710;BME280;37033;49.994;21.992;2023-06-24T07:17:09;99398.19;;;19.59;97.32
50710;BME280;37033;49.994;21.992;2023-06-24T07:19:40;99401.84;;;19.62;97.17
50710;BME280;37033;49.994;21.992;2023-06-24T07:22:11;99404.95;;;19.63;96.88
50710;BME280;37033;49.994;21.992;2023-06-24T07:24:42;99410.94;;;19.62;96.42
50710;BME280;37033;49.994;21.992;2023-06-24T07:27:12;99414.55;;;19.59;96.08
50710;BME280;37033;49.994;21.992;2023-06-24T07:29:43;99417.20;;;19.56;95.83
50710;BME280;37033;49.994;21.992;2023-06-24T07:32:13;99421.48;;;19.52;95.60
50710;BME280;37033;49.994;21.992;2023-06-24T07:34:44;99423.39;;;19.51;95.47
50710;BME280;37033;49.994;21.992;2023-06-24T07:37:15;99421.98;;;19.50;95.48
50710;BME280;37033;49.994;21.992;2023-06-24T07:39:45;99426.52;;;19.52;95.43
50710;BME280;37033;49.994;21.992;2023-06-24T07:42:16;99434.17;;;19.57;95.41
50710;BME280;37033;49.994;21.992;2023-06-24T07:44:48;99443.30;;;19.59;95.20
50710;BME280;37033;49.994;21.992;2023-06-24T07:47:19;99446.11;;;19.60;94.96
50710;BME280;37033;49.994;21.992;2023-06-24T07:49:50;99448.63;;;19.61;94.89
50710;BME280;37033;49.994;21.992;2023-06-24T07:52:21;99451.20;;;19.62;94.70
50710;BME280;37033;49.994;21.992;2023-06-24T07:54:51;99452.54;;;19.64;95.00
50710;BME280;37033;49.994;21.992;2023-06-24T07:57:22;99458.77;;;19.68;94.74
50710;BME280;37033;49.994;21.992;2023-06-24T07:59:53;99459.72;;;19.71;94.55
50710;BME280;37033;49.994;21.992;2023-06-24T08:02:23;99459.00;;;19.73;94.49
50710;BME280;37033;49.994;21.992;2023-06-24T08:04:55;99462.94;;;19.74;94.32
50710;BME280;37033;49.994;21.992;2023-06-24T08:07:26;99465.36;;;19.78;94.30
50710;BME280;37033;49.994;21.992;2023-06-24T08:09:56;99467.67;;;19.82;94.13
50710;BME280;37033;49.994;21.992;2023-06-24T08:12:27;99467.09;;;19.84;94.17
50710;BME280;37033;49.994;21.992;2023-06-24T08:15:01;99472.36;;;19.85;94.13
50710;BME280;37033;49.994;21.992;2023-06-24T08:17:31;99477.57;;;19.87;93.70
50710;BME280;37033;49.994;21.992;2023-06-24T08:20:03;99480.42;;;19.85;93.49
50710;BME280;37033;49.994;21.992;2023-06-24T08:22:37;99486.10;;;19.82;93.12
50710;BME280;37033;49.994;21.992;2023-06-24T08:25:08;99492.61;;;19.75;92.91
50710;BME280;37033;49.994;21.992;2023-06-24T08:27:39;99494.88;;;19.69;92.96
50710;BME280;37033;49.994;21.992;2023-06-24T08:30:11;99497.87;;;19.65;93.00
50710;BME280;37033;49.994;21.992;2023-06-24T08:32:42;99498.86;;;19.61;93.03
50710;BME280;37033;49.994;21.992;2023-06-24T08:35:12;99499.42;;;19.57;92.84
50710;BME280;37033;49.994;21.992;2023-06-24T08:37:43;99498.83;;;19.52;92.72
50710;BME280;37033;49.994;21.992;2023-06-24T08:40:14;99499.98;;;19.48;92.63
50710;BME280;37033;49.994;21.992;2023-06-24T08:42:45;99500.02;;;19.46;92.65
50710;BME280;37033;49.994;21.992;2023-06-24T08:45:16;99503.10;;;19.42;92.64
50710;BME280;37033;49.994;21.992;2023-06-24T08:47:48;99501.28;;;19.42;92.78
50710;BME280;37033;49.994;21.992;2023-06-24T08:50:20;99499.83;;;19.43;92.59
50710;BME280;37033;49.994;21.992;2023-06-24T08:52:54;99499.95;;;19.43;92.64
50710;BME280;37033;49.994;21.992;2023-06-24T08:55:28;99497.77;;;19.45;92.52
50710;BME280;37033;49.994;21.992;2023-06-24T08:58:01;99500.46;;;19.48;92.61
50710;BME280;37033;49.994;21.992;2023-06-24T09:00:32;99504.29;;;19.55;92.80
50710;BME280;37033;49.994;21.992;2023-06-24T09:03:04;99505.73;;;19.62;92.81
50710;BME280;37033;49.994;21.992;2023-06-24T09:05:35;99506.76;;;19.67;92.28
50710;BME280;37033;49.994;21.992;2023-06-24T09:08:06;99510.36;;;19.69;92.13
50710;BME280;37033;49.994;21.992;2023-06-24T09:10:37;99510.80;;;19.76;92.00
50710;BME280;37033;49.994;21.992;2023-06-24T09:13:08;99513.73;;;19.79;91.75
50710;BME280;37033;49.994;21.992;2023-06-24T09:15:39;99517.05;;;19.81;91.51
50710;BME280;37033;49.994;21.992;2023-06-24T09:18:10;99524.45;;;19.85;91.63
50710;BME280;37033;49.994;21.992;2023-06-24T09:20:43;99525.79;;;19.94;91.51
50710;BME280;37033;49.994;21.992;2023-06-24T09:23:15;99526.41;;;19.97;90.83
50710;BME280;37033;49.994;21.992;2023-06-24T09:25:57;99533.19;;;19.94;89.92
50710;BME280;37033;49.994;21.992;2023-06-24T09:28:28;99529.98;;;19.90;89.77
50710;BME280;37033;49.994;21.992;2023-06-24T09:31:09;99532.72;;;19.89;89.68
50710;BME280;37033;49.994;21.992;2023-06-24T09:33:40;99537.98;;;19.87;89.70
50710;BME280;37033;49.994;21.992;2023-06-24T09:36:14;99540.99;;;19.89;89.40
50710;BME280;37033;49.994;21.992;2023-06-24T09:38:45;99543.55;;;19.88;89.03
50710;BME280;37033;49.994;21.992;2023-06-24T09:41:16;99540.27;;;19.82;88.71
50710;BME280;37033;49.994;21.992;2023-06-24T09:43:47;99542.27;;;19.78;88.72
50710;BME280;37033;49.994;21.992;2023-06-24T09:46:17;99543.79;;;19.72;88.39
50710;BME280;37033;49.994;21.992;2023-06-24T09:48:48;99541.98;;;19.68;88.64
50710;BME280;37033;49.994;21.992;2023-06-24T09:51:19;99545.08;;;19.67;88.65
50710;BME280;37033;49.994;21.992;2023-06-24T09:53:52;99547.34;;;19.65;88.65
50710;BME280;37033;49.994;21.992;2023-06-24T09:56:24;99550.50;;;19.64;88.91
50710;BME280;37033;49.994;21.992;2023-06-24T09:58:55;99554.17;;;19.65;89.12
50710;BME280;37033;49.994;21.992;2023-06-24T10:01:26;99555.36;;;19.67;89.24
50710;BME280;37033;49.994;21.992;2023-06-24T10:03:56;99557.61;;;19.68;89.29
50710;BME280;37033;49.994;21.992;2023-06-24T10:06:27;99562.98;;;19.70;89.43
50710;BME280;37033;49.994;21.992;2023-06-24T10:08:59;99562.66;;;19.72;89.09
50710;BME280;37033;49.994;21.992;2023-06-24T10:11:30;99566.52;;;19.70;89.00
50710;BME280;37033;49.994;21.992;2023-06-24T10:14:01;99568.88;;;19.71;89.20
50710;BME280;37033;49.994;21.992;2023-06-24T10:16:31;99571.10;;;19.75;89.12
50710;BME280;37033;49.994;21.992;2023-06-24T10:19:03;99569.33;;;19.73;88.78
50710;BME280;37033;49.994;21.992;2023-06-24T10:21:47;99576.53;;;19.73;88.70
50710;BME280;37033;49.994;21.992;2023-06-24T10:24:33;99576.48;;;19.73;88.52
50710;BME280;37033;49.994;21.992;2023-06-24T10:27:08;99576.38;;;19.71;88.55
50710;BME280;37033;49.994;21.992;2023-06-24T10:29:39;99575.04;;;19.74;88.58
50710;BME280;37033;49.994;21.992;2023-06-24T10:32:10;99578.67;;;19.74;88.64
50710;BME280;37033;49.994;21.992;2023-06-24T10:34:42;99573.96;;;19.71;88.35
50710;BME280;37033;49.994;21.992;2023-06-24T10:37:18;99570.87;;;19.72;88.23
50710;BME280;37033;49.994;21.992;2023-06-24T10:39:51;99572.82;;;19.75;88.23
50710;BME280;37033;49.994;21.992;2023-06-24T10:42:35;99575.99;;;19.76;88.08
50710;BME280;37033;49.994;21.992;2023-06-24T10:47:58;99575.21;;;19.91;88.36
50710;BME280;37033;49.994;21.992;2023-06-24T10:50:29;99577.04;;;20.00;88.32
50710;BME280;37033;49.994;21.992;2023-06-24T10:53:00;99573.77;;;20.07;88.19
50710;BME280;37033;49.994;21.992;2023-06-24T10:55:31;99575.80;;;20.15;87.73
50710;BME280;37033;49.994;21.992;2023-06-24T10:58:10;99579.20;;;20.19;87.63
50710;BME280;37033;49.994;21.992;2023-06-24T11:00:42;99583.00;;;20.20;87.19
50710;BME280;37033;49.994;21.992;2023-06-24T11:03:16;99583.66;;;20.20;86.78
50710;BME280;37033;49.994;21.992;2023-06-24T11:05:48;99582.57;;;20.19;86.56
50710;BME280;37033;49.994;21.992;2023-06-24T11:08:20;99585.70;;;20.20;86.17
50710;BME280;37033;49.994;21.992;2023-06-24T11:10:50;99589.26;;;20.23;86.20
50710;BME280;37033;49.994;21.992;2023-06-24T11:13:22;99592.34;;;20.26;85.56
50710;BME280;37033;49.994;21.992;2023-06-24T11:15:53;99591.65;;;20.24;85.30
50710;BME280;37033;49.994;21.992;2023-06-24T11:18:38;99590.11;;;20.24;84.92
50710;BME280;37033;49.994;21.992;2023-06-24T11:21:11;99595.23;;;20.24;84.76
50710;BME280;37033;49.994;21.992;2023-06-24T11:23:42;99600.48;;;20.25;84.68
50710;BME280;37033;49.994;21.992;2023-06-24T11:26:13;99603.89;;;20.22;84.05
50710;BME280;37033;49.994;21.992;2023-06-24T11:28:45;99601.63;;;20.15;83.56
50710;BME280;37033;49.994;21.992;2023-06-24T11:31:18;99603.95;;;20.10;83.88
50710;BME280;37033;49.994;21.992;2023-06-24T11:33:50;99602.68;;;20.07;83.76
50710;BME280;37033;49.994;21.992;2023-06-24T11:36:22;99602.58;;;20.07;83.79
50710;BME280;37033;49.994;21.992;2023-06-24T11:38:52;99602.89;;;20.08;84.14
50710;BME280;37033;49.994;21.992;2023-06-24T11:41:23;99602.00;;;20.13;84.12
50710;BME280;37033;49.994;21.992;2023-06-24T11:43:55;99602.86;;;20.17;84.06
50710;BME280;37033;49.994;21.992;2023-06-24T11:46:28;99601.91;;;20.18;83.55
50710;BME280;37033;49.994;21.992;2023-06-24T11:49:05;99599.40;;;20.16;83.12
50710;BME280;37033;49.994;21.992;2023-06-24T11:51:37;99597.26;;;20.13;82.94
50710;BME280;37033;49.994;21.992;2023-06-24T11:54:09;99601.95;;;20.08;82.67
50710;BME280;37033;49.994;21.992;2023-06-24T11:56:42;99597.04;;;20.02;83.22
50710;BME280;37033;49.994;21.992;2023-06-24T11:59:20;99598.73;;;20.02;83.27
50710;BME280;37033;49.994;21.992;2023-06-24T12:01:57;99597.90;;;20.03;83.42
50710;BME280;37033;49.994;21.992;2023-06-24T12:04:32;99595.21;;;20.09;83.68
50710;BME280;37033;49.994;21.992;2023-06-24T12:07:04;99593.84;;;20.11;83.35
50710;BME280;37033;49.994;21.992;2023-06-24T12:09:35;99591.52;;;20.12;83.33
50710;BME280;37033;49.994;21.992;2023-06-24T12:12:09;99591.94;;;20.14;83.20
50710;BME280;37033;49.994;21.992;2023-06-24T12:14:39;99593.20;;;20.14;83.35
50710;BME280;37033;49.994;21.992;2023-06-24T12:17:10;99587.08;;;20.17;83.47
50710;BME280;37033;49.994;21.992;2023-06-24T12:19:40;99587.98;;;20.22;83.47
50710;BME280;37033;49.994;21.992;2023-06-24T12:22:11;99592.31;;;20.25;83.60
50710;BME280;37033;49.994;21.992;2023-06-24T12:24:42;99594.10;;;20.27;83.65
50710;BME280;37033;49.994;21.992;2023-06-24T12:27:13;99591.61;;;20.30;83.38
50710;BME280;37033;49.994;21.992;2023-06-24T12:29:43;99587.73;;;20.27;83.29
50710;BME280;37033;49.994;21.992;2023-06-24T12:32:14;99587.98;;;20.27;83.34
50710;BME280;37033;49.994;21.992;2023-06-24T12:34:44;99589.57;;;20.26;83.36
50710;BME280;37033;49.994;21.992;2023-06-24T12:37:15;99592.11;;;20.27;83.47
50710;BME280;37033;49.994;21.992;2023-06-24T12:39:46;99593.02;;;20.28;83.72
50710;BME280;37033;49.994;21.992;2023-06-24T12:42:16;99590.15;;;20.32;83.60
50710;BME280;37033;49.994;21.992;2023-06-24T12:44:47;99591.09;;;20.32;83.63
50710;BME280;37033;49.994;21.992;2023-06-24T12:47:18;99595.02;;;20.35;83.77
50710;BME280;37033;49.994;21.992;2023-06-24T12:49:48;99596.42;;;20.33;83.53
50710;BME280;37033;49.994;21.992;2023-06-24T12:52:19;99601.77;;;20.30;83.75
50710;BME280;37033;49.994;21.992;2023-06-24T12:54:50;99603.45;;;20.29;83.98
50710;BME280;37033;49.994;21.992;2023-06-24T12:57:21;99605.05;;;20.29;84.04
50710;BME280;37033;49.994;21.992;2023-06-24T12:59:51;99607.66;;;20.28;84.21
50710;BME280;37033;49.994;21.992;2023-06-24T13:02:22;99608.63;;;20.26;84.18
50710;BME280;37033;49.994;21.992;2023-06-24T13:04:52;99605.14;;;20.21;84.00
50710;BME280;37033;49.994;21.992;2023-06-24T13:07:23;99600.06;;;20.16;84.29
50710;BME280;37033;49.994;21.992;2023-06-24T13:09:54;99608.54;;;20.17;84.51
50710;BME280;37033;49.994;21.992;2023-06-24T13:12:24;99610.53;;;20.13;83.98
50710;BME280;37033;49.994;21.992;2023-06-24T13:14:55;99610.23;;;20.08;83.89
50710;BME280;37033;49.994;21.992;2023-06-24T13:17:26;99607.37;;;20.04;83.99